sensor_id;sensor_type;location;lat;lon;timestamp;P1;durP1;ratioP1;P2;durP2;ratioP2
18526;SDS011;9393;42.158;24.748;2023-05-10T00:00:47;7.10;;;4.30;;
18526;SDS011;9393;42.158;24.748;2023-05-10T00:03:51;4.93;;;3.07;;
18526;SDS011;9393;42.158;24.748;2023-05-10T00:06:55;6.50;;;4.60;;
18526;SDS011;9393;42.158;24.748;2023-05-10T00:10:01;6.10;;;3.80;;
18526;SDS011;9393;42.158;24.748;2023-05-10T00:13:04;6.43;;;3.90;;
18526;SDS011;9393;42.158;24.748;2023-05-10T00:16:08;6.70;;;3.90;;
18526;SDS011;9393;42.158;24.748;2023-05-10T00:19:14;7.23;;;3.93;;
18526;SDS011;9393;42.158;24.748;2023-05-10T00:22:17;5.67;;;4.10;;
18526;SDS011;9393;42.158;24.748;2023-05-10T00:25:23;10.33;;;4.80;;
18526;SDS011;9393;42.158;24.748;2023-05-10T00:28:27;9.87;;;4.37;;
18526;SDS011;9393;42.158;24.748;2023-05-10T00:31:31;10.60;;;4.93;;
18526;SDS011;9393;42.158;24.748;2023-05-10T00:34:35;7.60;;;4.80;;
18526;SDS011;9393;42.158;24.748;2023-05-10T00:37:39;10.40;;;5.47;;
18526;SDS011;9393;42.158;24.748;2023-05-10T00:40:45;7.27;;;4.80;;
18526;SDS011;9393;42.158;24.748;2023-05-10T00:43:57;9.70;;;4.70;;
18526;SDS011;9393;42.158;24.748;2023-05-10T00:47:00;9.63;;;5.03;;
18526;SDS011;9393;42.158;24.748;2023-05-10T00:50:05;8.47;;;4.97;;
18526;SDS011;9393;42.158;24.748;2023-05-10T00:53:11;7.53;;;4.50;;
18526;SDS011;9393;42.158;24.748;2023-05-10T00:56:16;11.13;;;5.30;;
18526;SDS011;9393;42.158;24.748;2023-05-10T00:59:22;8.93;;;5.00;;
18526;SDS011;9393;42.158;24.748;2023-05-10T01:02:26;8.00;;;5.20;;
18526;SDS011;9393;42.158;24.748;2023-05-10T01:05:31;10.00;;;5.33;;
18526;SDS011;9393;42.158;24.748;2023-05-10T01:08:34;10.53;;;5.40;;
18526;SDS011;9393;42.158;24.748;2023-05-10T01:11:40;11.77;;;5.33;;
18526;SDS011;9393;42.158;24.748;2023-05-10T01:14:43;12.60;;;5.70;;
18526;SDS011;9393;42.158;24.748;2023-05-10T01:17:48;10.30;;;5.90;;
18526;SDS011;9393;42.158;24.748;2023-05-10T01:20:55;12.50;;;6.87;;
18526;SDS011;9393;42.158;24.748;2023-05-10T01:31:22;10.90;;;6.73;;
18526;SDS011;9393;42.158;24.748;2023-05-10T01:34:51;10.93;;;6.63;;
18526;SDS011;9393;42.158;24.748;2023-05-10T01:38:04;9.03;;;6.93;;
18526;SDS011;9393;42.158;24.748;2023-05-10T01:41:17;13.23;;;6.57;;
18526;SDS011;9393;42.158;24.748;2023-05-10T01:44:24;14.57;;;7.87;;
18526;SDS011;9393;42.158;24.748;2023-05-10T01:47:35;11.20;;;7.40;;
18526;SDS011;9393;42.158;24.748;2023-05-10T01:50:44;10.97;;;6.73;;
18526;SDS011;9393;42.158;24.748;2023-05-10T01:53:49;11.13;;;6.97;;
18526;SDS011;9393;42.158;24.748;2023-05-10T01:56:59;14.43;;;7.50;;
18526;SDS011;9393;42.158;24.748;2023-05-10T02:00:07;10.10;;;6.83;;
18526;SDS011;9393;42.158;24.748;2023-05-10T02:03:15;15.43;;;6.60;;
18526;SDS011;9393;42.158;24.748;2023-05-10T02:06:22;10.30;;;6.77;;
18526;SDS011;9393;42.158;24.748;2023-05-10T02:09:28;15.47;;;6.40;;
18526;SDS011;9393;42.158;24.748;2023-05-10T02:12:35;12.93;;;6.03;;
18526;SDS011;9393;42.158;24.748;2023-05-10T02:15:40;8.83;;;5.83;;
18526;SDS011;9393;42.158;24.748;2023-05-10T02:18:46;13.80;;;6.60;;
18526;SDS011;9393;42.158;24.748;2023-05-10T02:21:53;8.93;;;6.03;;
18526;SDS011;9393;42.158;24.748;2023-05-10T02:24:58;10.33;;;6.13;;
18526;SDS011;9393;42.158;24.748;2023-05-10T02:28:03;7.93;;;5.30;;
18526;SDS011;9393;42.158;24.748;2023-05-10T02:31:10;12.43;;;5.90;;
18526;SDS011;9393;42.158;24.748;2023-05-10T02:34:14;14.07;;;6.40;;
18526;SDS011;9393;42.158;24.748;2023-05-10T02:37:21;8.93;;;5.97;;
18526;SDS011;9393;42.158;24.748;2023-05-10T02:40:25;15.13;;;6.17;;
18526;SDS011;9393;42.158;24.748;2023-05-10T02:43:30;13.47;;;7.10;;
18526;SDS011;9393;42.158;24.748;2023-05-10T02:46:36;11.00;;;6.30;;
18526;SDS011;9393;42.158;24.748;2023-05-10T02:49:40;10.63;;;6.70;;
18526;SDS011;9393;42.158;24.748;2023-05-10T02:52:46;11.63;;;6.30;;
18526;SDS011;9393;42.158;24.748;2023-05-10T02:55:53;12.20;;;6.57;;
18526;SDS011;9393;42.158;24.748;2023-05-10T02:59:02;12.70;;;6.67;;
18526;SDS011;9393;42.158;24.748;2023-05-10T03:02:07;8.17;;;5.70;;
18526;SDS011;9393;42.158;24.748;2023-05-10T03:05:11;9.77;;;5.87;;
18526;SDS011;9393;42.158;24.748;2023-05-10T03:08:16;13.40;;;5.90;;
18526;SDS011;9393;42.158;24.748;2023-05-10T03:11:23;11.80;;;6.37;;
18526;SDS011;9393;42.158;24.748;2023-05-10T03:14:43;15.03;;;6.13;;
18526;SDS011;9393;42.158;24.748;2023-05-10T03:17:55;11.83;;;6.70;;
18526;SDS011;9393;42.158;24.748;2023-05-10T03:21:01;9.60;;;5.70;;
18526;SDS011;9393;42.158;24.748;2023-05-10T03:24:10;13.23;;;6.23;;
18526;SDS011;9393;42.158;24.748;2023-05-10T03:27:19;17.43;;;7.47;;
18526;SDS011;9393;42.158;24.748;2023-05-10T03:30:26;13.07;;;6.97;;
18526;SDS011;9393;42.158;24.748;2023-05-10T03:33:30;12.67;;;6.83;;
18526;SDS011;9393;42.158;24.748;2023-05-10T03:36:34;11.97;;;6.50;;
18526;SDS011;9393;42.158;24.748;2023-05-10T03:39:40;10.10;;;5.97;;
18526;SDS011;9393;42.158;24.748;2023-05-10T03:42:44;17.57;;;6.80;;
18526;SDS011;9393;42.158;24.748;2023-05-10T03:45:48;11.47;;;6.67;;
18526;SDS011;9393;42.158;24.748;2023-05-10T03:48:52;13.13;;;6.60;;
18526;SDS011;9393;42.158;24.748;2023-05-10T03:51:55;11.27;;;6.47;;
18526;SDS011;9393;42.158;24.748;2023-05-10T03:55:01;11.23;;;6.13;;
18526;SDS011;9393;42.158;24.748;2023-05-10T03:58:05;13.33;;;6.30;;
18526;SDS011;9393;42.158;24.748;2023-05-10T04:01:09;10.17;;;6.30;;
18526;SDS011;9393;42.158;24.748;2023-05-10T04:04:13;12.07;;;7.07;;
18526;SDS011;9393;42.158;24.748;2023-05-10T04:07:17;10.47;;;7.10;;
18526;SDS011;9393;42.158;24.748;2023-05-10T04:10:22;11.53;;;7.03;;
18526;SDS011;9393;42.158;24.748;2023-05-10T04:13:26;14.77;;;7.50;;
18526;SDS011;9393;42.158;24.748;2023-05-10T04:16:30;8.00;;;6.17;;
18526;SDS011;9393;42.158;24.748;2023-05-10T04:19:34;12.03;;;6.57;;
18526;SDS011;9393;42.158;24.748;2023-05-10T04:22:38;12.03;;;6.53;;
18526;SDS011;9393;42.158;24.748;2023-05-10T04:25:44;10.80;;;6.77;;
18526;SDS011;9393;42.158;24.748;2023-05-10T04:28:48;13.83;;;7.07;;
18526;SDS011;9393;42.158;24.748;2023-05-10T04:31:51;10.77;;;6.27;;
18526;SDS011;9393;42.158;24.748;2023-05-10T04:34:55;12.23;;;6.50;;
18526;SDS011;9393;42.158;24.748;2023-05-10T04:37:59;13.53;;;7.40;;
18526;SDS011;9393;42.158;24.748;2023-05-10T04:41:05;11.93;;;7.10;;
18526;SDS011;9393;42.158;24.748;2023-05-10T04:44:09;11.77;;;7.30;;
18526;SDS011;9393;42.158;24.748;2023-05-10T04:47:13;11.80;;;6.80;;
18526;SDS011;9393;42.158;24.748;2023-05-10T04:50:18;8.73;;;6.73;;
18526;SDS011;9393;42.158;24.748;2023-05-10T04:53:22;10.30;;;6.07;;
18526;SDS011;9393;42.158;24.748;2023-05-10T04:56:27;11.93;;;6.53;;
18526;SDS011;9393;42.158;24.748;2023-05-10T04:59:31;12.03;;;7.77;;
18526;SDS011;9393;42.158;24.748;2023-05-10T05:02:35;9.33;;;6.13;;
18526;SDS011;9393;42.158;24.748;2023-05-10T05:05:39;12.23;;;6.43;;
18526;SDS011;9393;42.158;24.748;2023-05-10T05:08:43;10.73;;;6.63;;
18526;SDS011;9393;42.158;24.748;2023-05-10T05:11:48;12.63;;;6.87;;
18526;SDS011;9393;42.158;24.748;2023-05-10T05:14:52;10.70;;;6.07;;
18526;SDS011;9393;42.158;24.748;2023-05-10T05:17:56;20.47;;;6.60;;
18526;SDS011;9393;42.158;24.748;2023-05-10T05:21:00;13.20;;;6.60;;
18526;SDS011;9393;42.158;24.748;2023-05-10T05:24:04;8.97;;;6.27;;
18526;SDS011;9393;42.158;24.748;2023-05-10T05:27:10;10.67;;;6.33;;
18526;SDS011;9393;42.158;24.748;2023-05-10T05:30:14;11.40;;;6.17;;
18526;SDS011;9393;42.158;24.748;2023-05-10T05:33:19;9.23;;;5.70;;
18526;SDS011;9393;42.158;24.748;2023-05-10T05:36:22;8.83;;;5.43;;
18526;SDS011;9393;42.158;24.748;2023-05-10T05:39:26;11.67;;;7.43;;
18526;SDS011;9393;42.158;24.748;2023-05-10T05:42:32;9.23;;;5.10;;
18526;SDS011;9393;42.158;24.748;2023-05-10T05:45:35;9.13;;;5.67;;
18526;SDS011;9393;42.158;24.748;2023-05-10T05:48:39;9.00;;;6.23;;
18526;SDS011;9393;42.158;24.748;2023-05-10T05:51:43;8.80;;;5.70;;
18526;SDS011;9393;42.158;24.748;2023-05-10T05:54:48;8.63;;;5.43;;
18526;SDS011;9393;42.158;24.748;2023-05-10T05:57:53;10.57;;;5.67;;
18526;SDS011;9393;42.158;24.748;2023-05-10T06:00:57;7.90;;;5.03;;
18526;SDS011;9393;42.158;24.748;2023-05-10T06:04:00;10.23;;;5.20;;
18526;SDS011;9393;42.158;24.748;2023-05-10T06:07:04;10.70;;;5.80;;
18526;SDS011;9393;42.158;24.748;2023-05-10T06:10:08;11.77;;;6.17;;
18526;SDS011;9393;42.158;24.748;2023-05-10T06:13:14;6.77;;;5.30;;
18526;SDS011;9393;42.158;24.748;2023-05-10T06:16:18;10.33;;;5.90;;
18526;SDS011;9393;42.158;24.748;2023-05-10T06:19:22;7.73;;;5.07;;
18526;SDS011;9393;42.158;24.748;2023-05-10T06:22:26;11.63;;;6.20;;
18526;SDS011;9393;42.158;24.748;2023-05-10T06:25:30;11.37;;;5.47;;
18526;SDS011;9393;42.158;24.748;2023-05-10T06:28:35;14.30;;;5.30;;
18526;SDS011;9393;42.158;24.748;2023-05-10T06:31:40;12.73;;;5.80;;
18526;SDS011;9393;42.158;24.748;2023-05-10T06:34:44;8.13;;;5.43;;
18526;SDS011;9393;42.158;24.748;2023-05-10T06:37:48;10.20;;;6.20;;
18526;SDS011;9393;42.158;24.748;2023-05-10T06:40:52;10.87;;;5.77;;
18526;SDS011;9393;42.158;24.748;2023-05-10T06:43:57;11.50;;;5.70;;
18526;SDS011;9393;42.158;24.748;2023-05-10T06:47:01;11.83;;;5.93;;
18526;SDS011;9393;42.158;24.748;2023-05-10T06:50:05;12.87;;;5.77;;
18526;SDS011;9393;42.158;24.748;2023-05-10T06:53:10;11.27;;;5.20;;
18526;SDS011;9393;42.158;24.748;2023-05-10T06:56:15;7.67;;;5.07;;
18526;SDS011;9393;42.158;24.748;2023-05-10T06:59:20;9.80;;;5.13;;
18526;SDS011;9393;42.158;24.748;2023-05-10T07:02:24;11.90;;;5.83;;
18526;SDS011;9393;42.158;24.748;2023-05-10T07:05:28;12.30;;;5.13;;
18526;SDS011;9393;42.158;24.748;2023-05-10T07:08:32;12.00;;;5.60;;
18526;SDS011;9393;42.158;24.748;2023-05-10T07:11:36;9.90;;;5.07;;
18526;SDS011;9393;42.158;24.748;2023-05-10T07:14:42;9.23;;;5.20;;
18526;SDS011;9393;42.158;24.748;2023-05-10T07:17:46;8.60;;;5.20;;
18526;SDS011;9393;42.158;24.748;2023-05-10T07:20:50;10.07;;;5.60;;
18526;SDS011;9393;42.158;24.748;2023-05-10T07:23:54;14.47;;;7.10;;
18526;SDS011;9393;42.158;24.748;2023-05-10T07:26:58;8.97;;;5.63;;
18526;SDS011;9393;42.158;24.748;2023-05-10T07:30:03;9.60;;;5.37;;
18526;SDS011;9393;42.158;24.748;2023-05-10T07:33:08;17.47;;;7.73;;
18526;SDS011;9393;42.158;24.748;2023-05-10T07:36:13;10.10;;;5.80;;
18526;SDS011;9393;42.158;24.748;2023-05-10T07:39:17;8.97;;;4.73;;
18526;SDS011;9393;42.158;24.748;2023-05-10T07:42:28;9.77;;;6.50;;
18526;SDS011;9393;42.158;24.748;2023-05-10T07:45:34;7.80;;;4.80;;
18526;SDS011;9393;42.158;24.748;2023-05-10T07:48:38;10.43;;;4.87;;
18526;SDS011;9393;42.158;24.748;2023-05-10T07:51:42;7.50;;;4.30;;
18526;SDS011;9393;42.158;24.748;2023-05-10T07:54:46;10.33;;;5.60;;
18526;SDS011;9393;42.158;24.748;2023-05-10T07:57:50;5.60;;;3.83;;
18526;SDS011;9393;42.158;24.748;2023-05-10T08:00:55;5.87;;;4.17;;
18526;SDS011;9393;42.158;24.748;2023-05-10T08:03:59;7.63;;;4.03;;
18526;SDS011;9393;42.158;24.748;2023-05-10T08:07:04;9.83;;;4.30;;
18526;SDS011;9393;42.158;24.748;2023-05-10T08:10:08;6.20;;;3.57;;
18526;SDS011;9393;42.158;24.748;2023-05-10T08:13:13;6.37;;;4.03;;
18526;SDS011;9393;42.158;24.748;2023-05-10T08:16:18;7.73;;;5.10;;
18526;SDS011;9393;42.158;24.748;2023-05-10T08:19:22;9.53;;;5.70;;
18526;SDS011;9393;42.158;24.748;2023-05-10T08:22:26;11.17;;;4.17;;
18526;SDS011;9393;42.158;24.748;2023-05-10T08:25:31;8.13;;;4.27;;
18526;SDS011;9393;42.158;24.748;2023-05-10T08:28:35;6.77;;;3.67;;
18526;SDS011;9393;42.158;24.748;2023-05-10T08:31:40;5.80;;;3.90;;
18526;SDS011;9393;42.158;24.748;2023-05-10T08:34:44;5.20;;;3.70;;
18526;SDS011;9393;42.158;24.748;2023-05-10T08:37:48;6.80;;;4.47;;
18526;SDS011;9393;42.158;24.748;2023-05-10T08:40:52;5.27;;;3.60;;
18526;SDS011;9393;42.158;24.748;2023-05-10T08:43:58;6.57;;;3.80;;
18526;SDS011;9393;42.158;24.748;2023-05-10T08:47:07;7.20;;;4.00;;
18526;SDS011;9393;42.158;24.748;2023-05-10T08:50:13;12.93;;;6.23;;
18526;SDS011;9393;42.158;24.748;2023-05-10T08:53:18;5.93;;;3.57;;
18526;SDS011;9393;42.158;24.748;2023-05-10T08:56:23;12.60;;;6.43;;
18526;SDS011;9393;42.158;24.748;2023-05-10T08:59:27;7.40;;;4.30;;
18526;SDS011;9393;42.158;24.748;2023-05-10T09:02:33;5.97;;;4.07;;
18526;SDS011;9393;42.158;24.748;2023-05-10T09:05:37;6.17;;;4.60;;
18526;SDS011;9393;42.158;24.748;2023-05-10T09:08:42;9.97;;;4.40;;
18526;SDS011;9393;42.158;24.748;2023-05-10T09:11:46;8.53;;;4.13;;
18526;SDS011;9393;42.158;24.748;2023-05-10T09:14:50;7.37;;;3.80;;
18526;SDS011;9393;42.158;24.748;2023-05-10T09:18:00;5.97;;;4.37;;
18526;SDS011;9393;42.158;24.748;2023-05-10T09:21:04;5.80;;;3.90;;
18526;SDS011;9393;42.158;24.748;2023-05-10T09:24:08;5.00;;;4.07;;
18526;SDS011;9393;42.158;24.748;2023-05-10T09:27:12;5.77;;;4.27;;
18526;SDS011;9393;42.158;24.748;2023-05-10T09:30:16;6.77;;;4.30;;
18526;SDS011;9393;42.158;24.748;2023-05-10T09:33:27;6.77;;;4.43;;
18526;SDS011;9393;42.158;24.748;2023-05-10T09:36:31;7.27;;;4.90;;
18526;SDS011;9393;42.158;24.748;2023-05-10T09:39:35;7.57;;;4.00;;
18526;SDS011;9393;42.158;24.748;2023-05-10T09:42:41;6.13;;;4.13;;
18526;SDS011;9393;42.158;24.748;2023-05-10T09:45:47;6.87;;;4.47;;
18526;SDS011;9393;42.158;24.748;2023-05-10T09:48:53;9.00;;;4.73;;
18526;SDS011;9393;42.158;24.748;2023-05-10T09:52:00;11.03;;;4.10;;
18526;SDS011;9393;42.158;24.748;2023-05-10T09:55:05;8.70;;;4.37;;
18526;SDS011;9393;42.158;24.748;2023-05-10T09:58:10;8.83;;;4.23;;
18526;SDS011;9393;42.158;24.748;2023-05-10T10:01:14;5.97;;;4.20;;
18526;SDS011;9393;42.158;24.748;2023-05-10T10:04:20;5.90;;;4.30;;
18526;SDS011;9393;42.158;24.748;2023-05-10T10:07:24;5.63;;;3.90;;
18526;SDS011;9393;42.158;24.748;2023-05-10T10:10:28;4.40;;;3.50;;
18526;SDS011;9393;42.158;24.748;2023-05-10T10:13:33;5.40;;;4.13;;
18526;SDS011;9393;42.158;24.748;2023-05-10T10:16:38;8.17;;;4.07;;
18526;SDS011;9393;42.158;24.748;2023-05-10T10:19:58;7.23;;;4.03;;
18526;SDS011;9393;42.158;24.748;2023-05-10T10:23:05;6.23;;;3.60;;
18526;SDS011;9393;42.158;24.748;2023-05-10T10:26:11;7.70;;;4.03;;
18526;SDS011;9393;42.158;24.748;2023-05-10T10:29:18;5.77;;;3.83;;
18526;SDS011;9393;42.158;24.748;2023-05-10T10:32:29;5.30;;;4.03;;
18526;SDS011;9393;42.158;24.748;2023-05-10T10:35:42;6.27;;;4.87;;
18526;SDS011;9393;42.158;24.748;2023-05-10T10:38:56;7.20;;;4.83;;
18526;SDS011;9393;42.158;24.748;2023-05-10T10:42:03;7.47;;;3.87;;
18526;SDS011;9393;42.158;24.748;2023-05-10T10:45:13;7.00;;;4.07;;
18526;SDS011;9393;42.158;24.748;2023-05-10T10:48:21;6.03;;;4.20;;
18526;SDS011;9393;42.158;24.748;2023-05-10T10:51:29;9.83;;;4.13;;
18526;SDS011;9393;42.158;24.748;2023-05-10T10:54:33;6.47;;;4.40;;
18526;SDS011;9393;42.158;24.748;2023-05-10T10:57:45;6.83;;;4.30;;
18526;SDS011;9393;42.158;24.748;2023-05-10T11:00:50;8.47;;;4.67;;
18526;SDS011;9393;42.158;24.748;2023-05-10T11:04:16;4.97;;;3.63;;
18526;SDS011;9393;42.158;24.748;2023-05-10T11:07:23;6.43;;;3.93;;
18526;SDS011;9393;42.158;24.748;2023-05-10T11:10:27;5.50;;;4.27;;
18526;SDS011;9393;42.158;24.748;2023-05-10T11:13:31;6.60;;;4.20;;
18526;SDS011;9393;42.158;24.748;2023-05-10T11:16:40;4.20;;;3.90;;
18526;SDS011;9393;42.158;24.748;2023-05-10T11:23:12;7.43;;;4.67;;
18526;SDS011;9393;42.158;24.748;2023-05-10T11:26:19;7.93;;;4.83;;
18526;SDS011;9393;42.158;24.748;2023-05-10T11:29:27;7.40;;;4.50;;
18526;SDS011;9393;42.158;24.748;2023-05-10T11:32:30;5.83;;;4.27;;
18526;SDS011;9393;42.158;24.748;2023-05-10T11:35:38;4.80;;;4.40;;
18526;SDS011;9393;42.158;24.748;2023-05-10T11:38:46;5.97;;;4.30;;
18526;SDS011;9393;42.158;24.748;2023-05-10T11:41:50;4.80;;;3.63;;
18526;SDS011;9393;42.158;24.748;2023-05-10T11:44:54;6.03;;;3.90;;
18526;SDS011;9393;42.158;24.748;2023-05-10T11:47:58;4.27;;;3.47;;
18526;SDS011;9393;42.158;24.748;2023-05-10T11:51:02;6.33;;;3.00;;
18526;SDS011;9393;42.158;24.748;2023-05-10T11:54:08;8.03;;;4.20;;
18526;SDS011;9393;42.158;24.748;2023-05-10T11:57:13;6.67;;;3.70;;
18526;SDS011;9393;42.158;24.748;2023-05-10T12:00:17;4.40;;;4.00;;
18526;SDS011;9393;42.158;24.748;2023-05-10T12:03:21;4.77;;;3.90;;
18526;SDS011;9393;42.158;24.748;2023-05-10T12:06:26;6.63;;;4.47;;
18526;SDS011;9393;42.158;24.748;2023-05-10T12:09:35;6.47;;;5.30;;
18526;SDS011;9393;42.158;24.748;2023-05-10T12:12:45;5.13;;;4.07;;
18526;SDS011;9393;42.158;24.748;2023-05-10T12:15:50;6.60;;;4.27;;
18526;SDS011;9393;42.158;24.748;2023-05-10T12:18:55;5.53;;;5.03;;
18526;SDS011;9393;42.158;24.748;2023-05-10T12:22:04;5.93;;;4.23;;
18526;SDS011;9393;42.158;24.748;2023-05-10T12:25:10;5.90;;;4.73;;
18526;SDS011;9393;42.158;24.748;2023-05-10T12:28:13;6.97;;;4.80;;
18526;SDS011;9393;42.158;24.748;2023-05-10T12:31:17;8.43;;;5.73;;
18526;SDS011;9393;42.158;24.748;2023-05-10T12:34:25;7.67;;;4.77;;
18526;SDS011;9393;42.158;24.748;2023-05-10T12:37:29;6.23;;;5.50;;
18526;SDS011;9393;42.158;24.748;2023-05-10T12:40:35;8.63;;;5.13;;
18526;SDS011;9393;42.158;24.748;2023-05-10T12:43:39;7.43;;;6.00;;
18526;SDS011;9393;42.158;24.748;2023-05-10T12:46:43;6.07;;;5.20;;
18526;SDS011;9393;42.158;24.748;2023-05-10T12:49:47;7.77;;;5.60;;
18526;SDS011;9393;42.158;24.748;2023-05-10T12:52:51;6.53;;;4.97;;
18526;SDS011;9393;42.158;24.748;2023-05-10T12:55:56;6.23;;;5.63;;
18526;SDS011;9393;42.158;24.748;2023-05-10T12:59:00;6.53;;;5.77;;
18526;SDS011;9393;42.158;24.748;2023-05-10T13:02:04;10.23;;;6.33;;
18526;SDS011;9393;42.158;24.748;2023-05-10T13:05:09;9.17;;;6.40;;
18526;SDS011;9393;42.158;24.748;2023-05-10T13:08:15;10.43;;;6.70;;
18526;SDS011;9393;42.158;24.748;2023-05-10T13:11:20;8.00;;;5.43;;
18526;SDS011;9393;42.158;24.748;2023-05-10T13:14:24;7.13;;;5.67;;
18526;SDS011;9393;42.158;24.748;2023-05-10T13:17:29;5.97;;;5.40;;
18526;SDS011;9393;42.158;24.748;2023-05-10T13:20:34;5.57;;;4.97;;
18526;SDS011;9393;42.158;24.748;2023-05-10T13:23:38;7.00;;;4.30;;
18526;SDS011;9393;42.158;24.748;2023-05-10T13:26:43;5.67;;;4.53;;
18526;SDS011;9393;42.158;24.748;2023-05-10T13:29:47;6.30;;;4.50;;
18526;SDS011;9393;42.158;24.748;2023-05-10T13:32:52;7.00;;;5.40;;
18526;SDS011;9393;42.158;24.748;2023-05-10T13:35:56;7.10;;;5.40;;
18526;SDS011;9393;42.158;24.748;2023-05-10T13:38:59;6.80;;;5.13;;
18526;SDS011;9393;42.158;24.748;2023-05-10T13:42:06;7.80;;;5.73;;
18526;SDS011;9393;42.158;24.748;2023-05-10T13:45:10;7.40;;;6.27;;
18526;SDS011;9393;42.158;24.748;2023-05-10T13:48:15;7.23;;;6.20;;
18526;SDS011;9393;42.158;24.748;2023-05-10T13:51:19;6.70;;;6.00;;
18526;SDS011;9393;42.158;24.748;2023-05-10T13:54:23;11.10;;;8.20;;
18526;SDS011;9393;42.158;24.748;2023-05-10T13:57:29;9.73;;;6.93;;
18526;SDS011;9393;42.158;24.748;2023-05-10T14:00:33;9.43;;;7.60;;
18526;SDS011;9393;42.158;24.748;2023-05-10T14:03:37;11.80;;;8.00;;
18526;SDS011;9393;42.158;24.748;2023-05-10T14:06:41;8.67;;;7.77;;
18526;SDS011;9393;42.158;24.748;2023-05-10T14:09:45;10.67;;;8.77;;
18526;SDS011;9393;42.158;24.748;2023-05-10T14:12:50;8.27;;;7.07;;
18526;SDS011;9393;42.158;24.748;2023-05-10T14:15:54;7.67;;;6.87;;
18526;SDS011;9393;42.158;24.748;2023-05-10T14:18:58;8.97;;;6.80;;
18526;SDS011;9393;42.158;24.748;2023-05-10T14:22:02;9.70;;;6.87;;
18526;SDS011;9393;42.158;24.748;2023-05-10T14:25:06;7.43;;;5.90;;
18526;SDS011;9393;42.158;24.748;2023-05-10T14:28:12;8.43;;;6.93;;
18526;SDS011;9393;42.158;24.748;2023-05-10T14:31:16;7.00;;;6.00;;
18526;SDS011;9393;42.158;24.748;2023-05-10T14:34:22;7.80;;;6.90;;
18526;SDS011;9393;42.158;24.748;2023-05-10T14:37:26;7.30;;;6.23;;
18526;SDS011;9393;42.158;24.748;2023-05-10T14:40:30;8.70;;;6.43;;
18526;SDS011;9393;42.158;24.748;2023-05-10T14:43:35;10.23;;;6.53;;
18526;SDS011;9393;42.158;24.748;2023-05-10T14:46:39;7.10;;;5.43;;
18526;SDS011;9393;42.158;24.748;2023-05-10T14:49:43;4.90;;;4.40;;
18526;SDS011;9393;42.158;24.748;2023-05-10T14:52:47;5.43;;;4.80;;
18526;SDS011;9393;42.158;24.748;2023-05-10T14:56:06;7.17;;;5.07;;
18526;SDS011;9393;42.158;24.748;2023-05-10T14:59:11;6.63;;;4.90;;
18526;SDS011;9393;42.158;24.748;2023-05-10T15:02:15;6.17;;;4.30;;
18526;SDS011;9393;42.158;24.748;2023-05-10T15:05:20;8.50;;;4.63;;
18526;SDS011;9393;42.158;24.748;2023-05-10T15:08:24;7.40;;;4.53;;
18526;SDS011;9393;42.158;24.748;2023-05-10T15:11:28;6.93;;;4.93;;
18526;SDS011;9393;42.158;24.748;2023-05-10T15:14:33;4.80;;;4.37;;
18526;SDS011;9393;42.158;24.748;2023-05-10T15:17:38;6.23;;;4.67;;
18526;SDS011;9393;42.158;24.748;2023-05-10T15:20:42;5.77;;;4.60;;
18526;SDS011;9393;42.158;24.748;2023-05-10T15:23:45;5.47;;;4.87;;
18526;SDS011;9393;42.158;24.748;2023-05-10T15:26:49;6.87;;;5.20;;
18526;SDS011;9393;42.158;24.748;2023-05-10T15:29:55;8.73;;;5.50;;
18526;SDS011;9393;42.158;24.748;2023-05-10T15:32:59;7.30;;;5.20;;
18526;SDS011;9393;42.158;24.748;2023-05-10T15:36:03;7.80;;;5.60;;
18526;SDS011;9393;42.158;24.748;2023-05-10T15:39:07;5.73;;;5.10;;
18526;SDS011;9393;42.158;24.748;2023-05-10T15:42:11;5.77;;;4.80;;
18526;SDS011;9393;42.158;24.748;2023-05-10T15:45:16;6.03;;;4.90;;
18526;SDS011;9393;42.158;24.748;2023-05-10T15:48:20;7.67;;;5.03;;
18526;SDS011;9393;42.158;24.748;2023-05-10T15:51:24;6.63;;;5.00;;
18526;SDS011;9393;42.158;24.748;2023-05-10T15:54:28;5.40;;;4.83;;
18526;SDS011;9393;42.158;24.748;2023-05-10T15:57:32;5.60;;;4.67;;
18526;SDS011;9393;42.158;24.748;2023-05-10T16:00:39;5.03;;;4.53;;
18526;SDS011;9393;42.158;24.748;2023-05-10T16:03:42;6.20;;;4.87;;
18526;SDS011;9393;42.158;24.748;2023-05-10T16:06:46;5.57;;;4.73;;
18526;SDS011;9393;42.158;24.748;2023-05-10T16:09:50;6.63;;;4.50;;
18526;SDS011;9393;42.158;24.748;2023-05-10T16:12:54;6.70;;;4.67;;
18526;SDS011;9393;42.158;24.748;2023-05-10T16:15:59;6.87;;;4.77;;
18526;SDS011;9393;42.158;24.748;2023-05-10T16:19:03;5.93;;;5.10;;
18526;SDS011;9393;42.158;24.748;2023-05-10T16:22:08;5.70;;;5.20;;
18526;SDS011;9393;42.158;24.748;2023-05-10T16:25:12;8.40;;;5.50;;
18526;SDS011;9393;42.158;24.748;2023-05-10T16:28:17;7.83;;;4.63;;
18526;SDS011;9393;42.158;24.748;2023-05-10T16:31:23;6.00;;;5.17;;
18526;SDS011;9393;42.158;24.748;2023-05-10T16:34:27;6.17;;;4.80;;
18526;SDS011;9393;42.158;24.748;2023-05-10T16:37:31;7.13;;;5.20;;
18526;SDS011;9393;42.158;24.748;2023-05-10T16:40:35;8.50;;;5.97;;
18526;SDS011;9393;42.158;24.748;2023-05-10T16:43:39;7.93;;;4.90;;
18526;SDS011;9393;42.158;24.748;2023-05-10T16:46:44;8.27;;;5.10;;
18526;SDS011;9393;42.158;24.748;2023-05-10T16:49:48;6.93;;;5.13;;
18526;SDS011;9393;42.158;24.748;2023-05-10T16:52:52;10.03;;;7.10;;
18526;SDS011;9393;42.158;24.748;2023-05-10T16:55:56;7.80;;;5.10;;
18526;SDS011;9393;42.158;24.748;2023-05-10T16:59:00;7.57;;;5.33;;
18526;SDS011;9393;42.158;24.748;2023-05-10T17:02:05;6.50;;;5.80;;
18526;SDS011;9393;42.158;24.748;2023-05-10T17:05:09;9.50;;;7.00;;
18526;SDS011;9393;42.158;24.748;2023-05-10T17:08:13;16.20;;;6.40;;
18526;SDS011;9393;42.158;24.748;2023-05-10T17:11:17;8.20;;;4.80;;
18526;SDS011;9393;42.158;24.748;2023-05-10T17:14:22;12.53;;;5.83;;
18526;SDS011;9393;42.158;24.748;2023-05-10T17:17:28;5.20;;;4.67;;
18526;SDS011;9393;42.158;24.748;2023-05-10T17:20:31;5.40;;;4.63;;
18526;SDS011;9393;42.158;24.748;2023-05-10T17:23:35;5.20;;;4.70;;
18526;SDS011;9393;42.158;24.748;2023-05-10T17:26:39;5.93;;;4.63;;
18526;SDS011;9393;42.158;24.748;2023-05-10T17:29:43;9.37;;;4.97;;
18526;SDS011;9393;42.158;24.748;2023-05-10T17:32:48;6.10;;;5.03;;
18526;SDS011;9393;42.158;24.748;2023-05-10T17:35:52;8.67;;;6.17;;
18526;SDS011;9393;42.158;24.748;2023-05-10T17:38:58;6.27;;;4.70;;
18526;SDS011;9393;42.158;24.748;2023-05-10T17:42:01;7.17;;;5.07;;
18526;SDS011;9393;42.158;24.748;2023-05-10T17:45:06;10.20;;;4.90;;
18526;SDS011;9393;42.158;24.748;2023-05-10T17:48:12;8.10;;;5.33;;
18526;SDS011;9393;42.158;24.748;2023-05-10T17:51:16;17.17;;;9.20;;
18526;SDS011;9393;42.158;24.748;2023-05-10T17:54:21;5.83;;;4.27;;
18526;SDS011;9393;42.158;24.748;2023-05-10T17:57:25;7.30;;;5.20;;
18526;SDS011;9393;42.158;24.748;2023-05-10T18:00:29;6.40;;;4.87;;
18526;SDS011;9393;42.158;24.748;2023-05-10T18:03:34;7.53;;;4.67;;
18526;SDS011;9393;42.158;24.748;2023-05-10T18:06:38;8.40;;;4.77;;
18526;SDS011;9393;42.158;24.748;2023-05-10T18:09:42;8.90;;;5.17;;
18526;SDS011;9393;42.158;24.748;2023-05-10T18:12:46;7.60;;;4.93;;
18526;SDS011;9393;42.158;24.748;2023-05-10T18:15:51;12.67;;;5.50;;
18526;SDS011;9393;42.158;24.748;2023-05-10T18:18:56;6.97;;;4.90;;
18526;SDS011;9393;42.158;24.748;2023-05-10T18:22:00;9.27;;;5.87;;
18526;SDS011;9393;42.158;24.748;2023-05-10T18:25:05;6.17;;;5.07;;
18526;SDS011;9393;42.158;24.748;2023-05-10T18:28:09;7.70;;;5.13;;
18526;SDS011;9393;42.158;24.748;2023-05-10T18:31:13;9.77;;;5.20;;
18526;SDS011;9393;42.158;24.748;2023-05-10T18:34:18;11.80;;;6.90;;
18526;SDS011;9393;42.158;24.748;2023-05-10T18:37:22;7.37;;;4.70;;
18526;SDS011;9393;42.158;24.748;2023-05-10T18:40:27;12.13;;;6.50;;